createdAt,value
2022-09-16T00:03:24.243Z,13.62
2022-09-16T00:08:23.548Z,13.62
2022-09-16T00:13:23.890Z,13.62
2022-09-16T00:18:22.192Z,13.62
2022-09-16T00:23:21.507Z,13.35
2022-09-16T00:28:20.802Z,13.35
2022-09-16T00:33:21.106Z,13.35
2022-09-16T00:38:19.399Z,13.35
2022-09-16T00:43:18.735Z,13.35
2022-09-16T00:48:18.048Z,13.35
2022-09-16T00:53:18.367Z,13.35
2022-09-16T00:58:17.660Z,13.35
2022-09-16T01:03:15.947Z,13.35
2022-09-16T01:08:15.223Z,13.35
2022-09-16T01:13:14.503Z,13.35
2022-09-16T01:18:13.798Z,13.35
2022-09-16T01:23:13.148Z,13.09
2022-09-16T01:28:14.394Z,13.09
2022-09-16T01:33:12.716Z,13.09
2022-09-16T01:38:12.999Z,13.09
2022-09-16T01:43:11.280Z,13.09
2022-09-16T01:48:10.573Z,13.09
2022-09-16T01:53:09.864Z,13.09
2022-09-16T01:58:08.182Z,13.09
2022-09-16T02:03:07.526Z,13.09
2022-09-16T02:08:07.664Z,13.09
2022-09-16T02:13:05.775Z,13.09
2022-09-16T02:18:06.075Z,13.09
2022-09-16T02:23:04.384Z,13.09
2022-09-16T02:28:04.666Z,13.09
2022-09-16T02:33:02.959Z,13.09
2022-09-16T02:38:01.260Z,13.09
2022-09-16T02:43:01.560Z,13.09
2022-09-16T02:48:01.851Z,13.09
2022-09-16T02:53:00.157Z,13.09
2022-09-16T02:57:59.445Z,13.09
2022-09-16T03:02:58.787Z,13.09
2022-09-16T03:07:57.874Z,13.09
2022-09-16T03:12:57.165Z,13.09
2022-09-16T03:17:57.514Z,13.09
2022-09-16T03:22:56.667Z,13.09
2022-09-16T03:27:53.754Z,13.09
2022-09-16T03:32:55.072Z,13.09
2022-09-16T03:37:55.379Z,13.09
2022-09-16T03:42:52.681Z,13.09
2022-09-16T03:47:52.987Z,13.09
2022-09-16T03:52:53.281Z,13.09
2022-09-16T03:57:50.586Z,13.09
2022-09-16T04:02:50.055Z,13.09
2022-09-16T04:07:49.213Z,13.09
2022-09-16T04:12:48.535Z,13.09
2022-09-16T04:17:47.921Z,13.09
2022-09-16T04:22:47.045Z,13.09
2022-09-16T04:27:47.384Z,13.09
2022-09-16T04:32:45.655Z,13.09
2022-09-16T04:37:45.963Z,13.09
2022-09-16T04:42:44.215Z,13.09
2022-09-16T04:47:43.482Z,13.09
2022-09-16T04:52:42.762Z,13.09
2022-09-16T04:57:42.074Z,13.09
2022-09-16T05:02:42.442Z,13.09
2022-09-16T05:07:40.547Z,13.09
2022-09-16T05:12:41.846Z,13.09
2022-09-16T05:17:50.904Z,13.09
2022-09-16T05:22:38.299Z,13.09
2022-09-16T05:27:39.609Z,13.09
2022-09-16T05:32:37.904Z,13.09
2022-09-16T05:37:36.205Z,13.09
2022-09-16T05:42:36.511Z,13.09
2022-09-16T05:47:34.816Z,13.09
2022-09-16T05:52:34.170Z,13.09
2022-09-16T05:57:34.296Z,13.09
2022-09-16T06:02:33.658Z,12.82
2022-09-16T06:07:32.806Z,13.09
2022-09-16T06:12:31.119Z,13.09
2022-09-16T06:17:31.427Z,13.09
2022-09-16T06:22:30.730Z,13.09
2022-09-16T06:27:29.051Z,13.09
2022-09-16T06:32:28.428Z,13.09
2022-09-16T06:37:28.552Z,13.09
2022-09-16T06:42:26.863Z,13.09
2022-09-16T06:47:26.221Z,13.09
2022-09-16T06:52:25.305Z,13.09
2022-09-16T06:57:24.625Z,12.82
2022-09-16T07:02:23.880Z,12.82
2022-09-16T07:07:22.970Z,12.82
2022-09-16T07:12:23.301Z,12.82
2022-09-16T07:17:21.614Z,12.82
2022-09-16T07:22:21.908Z,12.82
2022-09-16T07:27:20.191Z,12.82
2022-09-16T07:32:19.477Z,12.82
2022-09-16T07:37:18.795Z,12.82
2022-09-16T07:42:18.081Z,12.82
2022-09-16T07:47:21.997Z,12.82
2022-09-16T07:52:18.532Z,12.82
2022-09-16T07:57:16.833Z,12.54
2022-09-16T08:02:15.245Z,12.82
2022-09-16T08:07:15.386Z,12.82
2022-09-16T08:12:12.691Z,12.54
2022-09-16T08:17:12.994Z,12.54
2022-09-16T08:22:12.296Z,12.54
2022-09-16T08:27:13.610Z,12.54
2022-09-16T08:32:10.949Z,12.54
2022-09-16T08:37:10.068Z,12.54
2022-09-16T08:42:10.393Z,12.54
2022-09-16T08:47:08.673Z,12.54
2022-09-16T08:52:09.033Z,12.54
2022-09-16T08:57:07.396Z,12.26
2022-09-16T09:02:09.446Z,12.54
2022-09-16T09:07:07.857Z,12.26
2022-09-16T09:12:06.312Z,12.26
2022-09-16T09:17:04.673Z,12.26
2022-09-16T09:22:04.781Z,12.26
2022-09-16T09:27:03.119Z,13.19
2022-09-16T09:32:03.481Z,12.26
2022-09-16T09:37:00.619Z,12.90
2022-09-16T09:42:00.769Z,11.98
2022-09-16T09:47:01.909Z,12.61
2022-09-16T09:52:00.267Z,12.32
2022-09-16T09:56:59.420Z,12.61
2022-09-16T10:01:59.785Z,12.32
2022-09-16T10:06:56.777Z,12.32
2022-09-16T10:11:56.073Z,12.61
2022-09-16T10:16:56.454Z,12.61
2022-09-16T10:21:54.589Z,12.32
2022-09-16T10:26:55.752Z,12.61
2022-09-16T10:31:53.942Z,12.32
2022-09-16T10:36:53.094Z,12.32
2022-09-16T10:41:50.817Z,12.01
2022-09-16T10:46:49.638Z,12.32
2022-09-16T10:51:49.875Z,12.01
2022-09-16T10:56:52.131Z,11.71
2022-09-16T11:01:48.954Z,12.01
2022-09-16T11:06:49.904Z,12.01
2022-09-16T11:11:46.733Z,12.01
2022-09-16T11:16:46.019Z,11.71
2022-09-16T11:21:45.329Z,11.40
2022-09-16T11:26:44.537Z,11.71
2022-09-16T11:31:43.863Z,11.40
2022-09-16T11:36:41.955Z,11.08
2022-09-16T11:41:41.214Z,10.75
2022-09-16T11:46:41.490Z,11.08
2022-09-16T11:51:40.850Z,11.08
2022-09-16T11:56:40.089Z,11.08
2022-09-16T12:01:39.394Z,11.08
2022-09-16T12:06:39.890Z,11.40
2022-09-16T12:11:36.841Z,11.40
2022-09-16T12:16:37.093Z,11.40
2022-09-16T12:21:36.267Z,10.79
2022-09-16T12:26:35.476Z,10.79
2022-09-16T12:31:34.767Z,11.39
2022-09-16T12:36:34.151Z,11.39
2022-09-16T12:41:33.246Z,11.98
2022-09-16T12:46:32.648Z,11.69
2022-09-16T12:51:31.641Z,11.98
2022-09-16T12:56:29.939Z,11.98
2022-09-16T13:01:30.216Z,11.98
2022-09-16T13:06:30.478Z,11.69
2022-09-16T13:12:16.643Z,11.98
2022-09-16T13:16:26.966Z,11.69
2022-09-16T13:21:26.216Z,11.98
2022-09-16T13:26:26.623Z,11.98
2022-09-16T13:31:26.161Z,11.98
2022-09-16T13:36:24.784Z,11.98
2022-09-16T13:41:23.960Z,11.98
2022-09-16T13:46:22.131Z,11.98
2022-09-16T13:51:22.311Z,12.26
2022-09-16T13:56:22.497Z,12.26
2022-09-16T14:01:22.683Z,12.26
2022-09-16T14:06:19.827Z,11.98
2022-09-16T14:11:19.229Z,12.26
2022-09-16T14:16:21.528Z,11.98
2022-09-16T14:21:17.658Z,11.98
2022-09-16T14:26:16.984Z,11.98
2022-09-16T14:31:16.191Z,11.98
2022-09-16T14:36:16.385Z,11.98
2022-09-16T14:41:14.560Z,11.98
2022-09-16T14:46:13.860Z,11.98
2022-09-16T14:51:13.019Z,12.26
2022-09-16T14:56:13.143Z,11.98
2022-09-16T15:01:13.230Z,11.98
2022-09-16T15:06:10.758Z,11.98
2022-09-16T15:11:19.358Z,11.98
2022-09-16T15:16:09.293Z,11.33
2022-09-16T15:21:07.438Z,11.33
2022-09-16T15:26:07.567Z,11.33
2022-09-16T15:31:05.919Z,11.05
2022-09-16T15:36:06.046Z,11.33
2022-09-16T15:41:06.183Z,12.26
2022-09-16T15:46:05.553Z,11.98
2022-09-16T15:51:04.695Z,11.98
2022-09-16T15:56:04.023Z,11.69
2022-09-16T16:01:04.394Z,12.62
2022-09-16T16:06:01.405Z,12.90
2022-09-16T16:11:00.787Z,12.57
2022-09-16T16:15:59.974Z,12.80
2022-09-16T16:20:58.094Z,12.80
2022-09-16T16:25:58.254Z,13.14
2022-09-16T16:30:56.585Z,12.80
2022-09-16T16:35:57.770Z,12.80
2022-09-16T16:40:58.087Z,12.80
2022-09-16T16:45:55.338Z,12.80
2022-09-16T16:50:55.505Z,12.09
2022-09-16T16:55:53.819Z,12.45
2022-09-16T17:00:53.088Z,12.45
2022-09-16T17:05:54.374Z,12.99
2022-09-16T17:10:51.645Z,12.99
2022-09-16T17:15:50.942Z,12.99
2022-09-16T17:20:50.279Z,12.45
2022-09-16T17:25:49.614Z,12.45
2022-09-16T17:30:48.964Z,12.80
2022-09-16T17:35:50.085Z,12.45
2022-09-16T17:40:47.351Z,13.14
2022-09-16T17:45:47.664Z,12.24
2022-09-16T17:50:45.787Z,12.24
2022-09-16T17:55:46.126Z,12.57
2022-09-16T18:00:44.432Z,12.80
2022-09-16T18:05:43.764Z,13.14
2022-09-16T18:10:42.118Z,12.80
2022-09-16T18:15:42.250Z,12.93
2022-09-16T18:20:40.605Z,12.82
2022-09-16T18:25:40.723Z,11.48
2022-09-16T18:30:40.036Z,11.30
2022-09-16T18:35:39.495Z,11.06
2022-09-16T18:40:40.938Z,12.00
2022-09-16T18:45:37.902Z,11.55
2022-09-16T18:50:37.185Z,12.03
2022-09-16T18:55:37.428Z,11.55
2022-09-16T19:00:35.668Z,11.48
2022-09-16T19:05:34.830Z,11.48
2022-09-16T19:10:35.007Z,11.48
2022-09-16T19:15:34.243Z,11.88
2022-09-16T19:20:33.410Z,10.80
2022-09-16T19:25:31.610Z,10.55
2022-09-16T19:30:31.897Z,11.06
2022-09-16T19:35:31.428Z,11.30
2022-09-16T19:40:29.330Z,11.30
2022-09-16T19:45:28.366Z,11.30
2022-09-16T19:50:28.541Z,11.06
2022-09-16T19:55:27.702Z,11.55
2022-09-16T20:00:36.721Z,10.80
2022-09-16T20:05:25.116Z,10.80
2022-09-16T20:10:23.308Z,11.06
2022-09-16T20:15:23.487Z,11.30
2022-09-16T20:20:24.683Z,10.80
2022-09-16T20:25:23.682Z,10.55
2022-09-16T20:30:21.009Z,10.80
2022-09-16T20:35:20.226Z,9.86
2022-09-16T20:40:19.540Z,10.28
2022-09-16T20:45:19.601Z,9.86
2022-09-16T20:50:17.804Z,10.02
2022-09-16T20:55:17.147Z,9.61
2022-09-16T21:00:17.316Z,9.86
2022-09-16T21:05:15.456Z,10.55
2022-09-16T21:10:15.656Z,10.28
2022-09-16T21:15:14.855Z,10.28
2022-09-16T21:20:13.037Z,11.98
2022-09-16T21:25:12.193Z,12.32
2022-09-16T21:30:11.360Z,12.31
2022-09-16T21:35:15.524Z,10.97
2022-09-16T21:40:09.775Z,12.80
2022-09-16T21:45:09.982Z,11.33
2022-09-16T21:50:08.133Z,9.25
2022-09-16T21:55:07.286Z,9.57
2022-09-16T22:00:06.456Z,10.40
2022-09-16T22:05:06.618Z,10.28
2022-09-16T22:10:04.824Z,9.61
2022-09-16T22:15:03.997Z,11.22
2022-09-16T22:20:03.192Z,11.98
2022-09-16T22:25:02.437Z,10.47
2022-09-16T22:30:01.606Z,10.76
2022-09-16T22:35:03.774Z,10.68
2022-09-16T22:40:02.007Z,10.02
2022-09-16T22:45:00.210Z,10.68
2022-09-16T22:49:58.370Z,9.75
2022-09-16T22:54:58.554Z,10.02
2022-09-16T22:59:56.751Z,10.02
2022-09-16T23:04:55.949Z,10.18
2022-09-16T23:09:56.128Z,11.71
2022-09-16T23:14:55.309Z,11.90
2022-09-16T23:19:53.496Z,11.55
2022-09-16T23:24:52.738Z,11.73
2022-09-16T23:29:52.879Z,11.73
2022-09-16T23:34:52.057Z,11.73
2022-09-16T23:39:51.254Z,11.35
2022-09-16T23:44:50.438Z,11.35
2022-09-16T23:49:49.774Z,10.97
2022-09-16T23:54:47.921Z,11.35
2022-09-16T23:59:47.092Z,11.35
